sensor_id;sensor_type;location;lat;lon;timestamp;pressure;altitude;pressure_sealevel;temperature;humidity
14204;BME280;7185;51.854;6.622;2023-07-29T10:42:26;100388.69;;;28.69;49.45
14204;BME280;7185;51.854;6.622;2023-07-29T10:45:24;100397.97;;;28.84;50.15
14204;BME280;7185;51.854;6.622;2023-07-29T10:48:40;100391.16;;;28.24;50.56
14204;BME280;7185;51.854;6.622;2023-07-29T10:51:27;100396.84;;;28.21;50.61
14204;BME280;7185;51.854;6.622;2023-07-29T10:54:09;100390.03;;;28.17;51.72
14204;BME280;7185;51.854;6.622;2023-07-29T10:56:51;100397.25;;;27.20;53.08
14204;BME280;7185;51.854;6.622;2023-07-29T10:59:36;100399.22;;;27.18;53.15
14204;BME280;7185;51.854;6.622;2023-07-29T11:02:18;100395.78;;;26.77;53.29
14204;BME280;7185;51.854;6.622;2023-07-29T11:04:53;100400.66;;;27.02;55.15
14204;BME280;7185;51.854;6.622;2023-07-29T11:11:02;100387.63;;;27.57;53.96
14204;BME280;7185;51.854;6.622;2023-07-29T11:13:43;100396.59;;;28.05;52.61
14204;BME280;7185;51.854;6.622;2023-07-29T11:16:23;100394.69;;;27.67;52.91
14204;BME280;7185;51.854;6.622;2023-07-29T11:18:58;100387.72;;;28.32;52.11
14204;BME280;7185;51.854;6.622;2023-07-29T11:21:30;100382.16;;;28.61;49.85
14204;BME280;7185;51.854;6.622;2023-07-29T11:24:26;100372.53;;;29.41;49.85
14204;BME280;7185;51.854;6.622;2023-07-29T11:27:00;100388.34;;;29.18;49.23
14204;BME280;7185;51.854;6.622;2023-07-29T11:29:34;100373.06;;;29.26;47.63
14204;BME280;7185;51.854;6.622;2023-07-29T11:32:11;100377.06;;;29.22;47.88
14204;BME280;7185;51.854;6.622;2023-07-29T11:34:45;100374.97;;;29.16;47.86
14204;BME280;7185;51.854;6.622;2023-07-29T11:37:17;100378.03;;;29.57;48.56
14204;BME280;7185;51.854;6.622;2023-07-29T11:40:14;100373.69;;;29.65;46.60
14204;BME280;7185;51.854;6.622;2023-07-29T11:42:52;100379.31;;;29.45;46.87
14204;BME280;7185;51.854;6.622;2023-07-29T11:45:26;100392.63;;;28.46;47.40
14204;BME280;7185;51.854;6.622;2023-07-29T11:48:00;100382.69;;;28.47;48.59
14204;BME280;7185;51.854;6.622;2023-07-29T11:50:38;100380.16;;;28.91;49.52
14204;BME280;7185;51.854;6.622;2023-07-29T11:53:11;100376.22;;;29.04;47.59
14204;BME280;7185;51.854;6.622;2023-07-29T11:55:44;100370.50;;;28.71;48.16
14204;BME280;7185;51.854;6.622;2023-07-29T11:58:21;100368.03;;;28.96;49.28
14204;BME280;7185;51.854;6.622;2023-07-29T12:00:53;100363.09;;;29.45;47.36
14204;BME280;7185;51.854;6.622;2023-07-29T12:03:30;100367.56;;;28.82;47.31
14204;BME280;7185;51.854;6.622;2023-07-29T12:06:14;100358.38;;;29.92;45.34
14204;BME280;7185;51.854;6.622;2023-07-29T12:08:58;100356.81;;;30.50;44.39
14204;BME280;7185;51.854;6.622;2023-07-29T12:11:35;100369.38;;;29.72;45.54
14204;BME280;7185;51.854;6.622;2023-07-29T12:14:10;100360.63;;;30.39;45.63
14204;BME280;7185;51.854;6.622;2023-07-29T12:16:42;100363.22;;;29.88;46.99
14204;BME280;7185;51.854;6.622;2023-07-29T12:19:16;100365.59;;;29.20;47.79
14204;BME280;7185;51.854;6.622;2023-07-29T12:21:48;100350.69;;;30.05;45.38
14204;BME280;7185;51.854;6.622;2023-07-29T12:24:22;100347.59;;;30.34;46.44
14204;BME280;7185;51.854;6.622;2023-07-29T12:26:54;100348.03;;;30.64;46.30
14204;BME280;7185;51.854;6.622;2023-07-29T12:29:26;100357.75;;;29.98;44.91
14204;BME280;7185;51.854;6.622;2023-07-29T12:31:59;100360.78;;;30.03;45.41
14204;BME280;7185;51.854;6.622;2023-07-29T12:34:36;100361.19;;;29.19;47.60
14204;BME280;7185;51.854;6.622;2023-07-29T12:37:08;100364.50;;;29.13;49.93
14204;BME280;7185;51.854;6.622;2023-07-29T12:39:49;100364.72;;;29.02;47.62
14204;BME280;7185;51.854;6.622;2023-07-29T12:42:21;100373.78;;;28.92;48.42
14204;BME280;7185;51.854;6.622;2023-07-29T12:44:53;100371.97;;;28.83;48.61
14204;BME280;7185;51.854;6.622;2023-07-29T12:47:25;100366.03;;;28.52;48.47
14204;BME280;7185;51.854;6.622;2023-07-29T12:49:58;100383.97;;;27.95;51.05
14204;BME280;7185;51.854;6.622;2023-07-29T12:52:30;100375.81;;;27.87;49.84
14204;BME280;7185;51.854;6.622;2023-07-29T12:55:02;100375.34;;;28.02;50.39
14204;BME280;7185;51.854;6.622;2023-07-29T12:57:35;100364.66;;;27.62;50.86
14204;BME280;7185;51.854;6.622;2023-07-29T13:00:08;100386.06;;;27.34;52.32
14204;BME280;7185;51.854;6.622;2023-07-29T13:02:40;100416.91;;;26.91;52.93
14204;BME280;7185;51.854;6.622;2023-07-29T13:05:13;100454.00;;;26.04;56.04
14204;BME280;7185;51.854;6.622;2023-07-29T13:07:45;100462.59;;;25.01;64.96
14204;BME280;7185;51.854;6.622;2023-07-29T13:10:18;100452.97;;;24.64;66.17
14204;BME280;7185;51.854;6.622;2023-07-29T13:18:51;100444.25;;;23.81;67.02
14204;BME280;7185;51.854;6.622;2023-07-29T13:21:58;100453.28;;;23.55;66.95
14204;BME280;7185;51.854;6.622;2023-07-29T13:24:44;100449.47;;;23.71;69.63
14204;BME280;7185;51.854;6.622;2023-07-29T13:27:23;100449.97;;;23.87;69.44
14204;BME280;7185;51.854;6.622;2023-07-29T13:29:56;100448.81;;;24.03;68.43
14204;BME280;7185;51.854;6.622;2023-07-29T13:32:28;100466.81;;;24.01;68.85
14204;BME280;7185;51.854;6.622;2023-07-29T13:35:00;100470.00;;;23.70;68.83
14204;BME280;7185;51.854;6.622;2023-07-29T13:37:36;100478.19;;;23.80;68.89
14204;BME280;7185;51.854;6.622;2023-07-29T13:40:20;100482.94;;;23.52;70.62
14204;BME280;7185;51.854;6.622;2023-07-29T13:42:55;100477.72;;;23.27;73.25
14204;BME280;7185;51.854;6.622;2023-07-29T13:45:29;100476.63;;;23.16;74.66
14204;BME280;7185;51.854;6.622;2023-07-29T13:48:01;100490.16;;;23.02;76.46
14204;BME280;7185;51.854;6.622;2023-07-29T13:50:33;100486.66;;;23.38;76.29
14204;BME280;7185;51.854;6.622;2023-07-29T13:53:14;100489.88;;;23.31;75.61
14204;BME280;7185;51.854;6.622;2023-07-29T13:55:49;100485.22;;;23.21;75.27
14204;BME280;7185;51.854;6.622;2023-07-29T13:58:24;100473.00;;;23.30;75.85
14204;BME280;7185;51.854;6.622;2023-07-29T14:01:04;100465.63;;;23.45;76.77
14204;BME280;7185;51.854;6.622;2023-07-29T14:03:38;100474.19;;;23.50;75.76
14204;BME280;7185;51.854;6.622;2023-07-29T14:06:12;100487.28;;;23.42;75.26
14204;BME280;7185;51.854;6.622;2023-07-29T14:09:00;100490.50;;;23.34;76.47
14204;BME280;7185;51.854;6.622;2023-07-29T14:11:42;100497.63;;;23.71;76.39
14204;BME280;7185;51.854;6.622;2023-07-29T14:14:23;100489.16;;;23.88;79.21
14204;BME280;7185;51.854;6.622;2023-07-29T14:16:58;100484.25;;;23.95;73.24
14204;BME280;7185;51.854;6.622;2023-07-29T14:19:46;100482.97;;;24.46;75.25
14204;BME280;7185;51.854;6.622;2023-07-29T14:22:18;100486.13;;;24.40;71.97
14204;BME280;7185;51.854;6.622;2023-07-29T14:24:52;100481.88;;;24.83;71.93
14204;BME280;7185;51.854;6.622;2023-07-29T14:27:41;100493.84;;;25.34;70.00
14204;BME280;7185;51.854;6.622;2023-07-29T14:30:38;100495.44;;;24.70;69.97
14204;BME280;7185;51.854;6.622;2023-07-29T14:33:15;100492.97;;;24.90;71.42
14204;BME280;7185;51.854;6.622;2023-07-29T14:35:52;100487.69;;;25.22;72.68
14204;BME280;7185;51.854;6.622;2023-07-29T14:38:24;100479.56;;;24.90;67.68
14204;BME280;7185;51.854;6.622;2023-07-29T14:41:02;100476.22;;;25.20;68.58
14204;BME280;7185;51.854;6.622;2023-07-29T14:43:34;100472.22;;;24.92;70.16
14204;BME280;7185;51.854;6.622;2023-07-29T14:46:07;100468.25;;;24.86;71.07
14204;BME280;7185;51.854;6.622;2023-07-29T14:48:38;100464.69;;;24.63;70.72
14204;BME280;7185;51.854;6.622;2023-07-29T14:51:11;100459.13;;;24.66;70.66
14204;BME280;7185;51.854;6.622;2023-07-29T14:53:42;100457.59;;;24.16;72.98
14204;BME280;7185;51.854;6.622;2023-07-29T14:56:16;100458.63;;;24.72;71.58
14204;BME280;7185;51.854;6.622;2023-07-29T14:58:48;100456.16;;;24.92;72.79
14204;BME280;7185;51.854;6.622;2023-07-29T15:01:21;100456.09;;;25.26;71.34
14204;BME280;7185;51.854;6.622;2023-07-29T15:03:53;100459.38;;;25.29;71.98
14204;BME280;7185;51.854;6.622;2023-07-29T15:06:24;100456.19;;;25.68;71.37
14204;BME280;7185;51.854;6.622;2023-07-29T15:08:56;100453.28;;;25.81;70.29
14204;BME280;7185;51.854;6.622;2023-07-29T15:11:30;100446.06;;;25.60;67.17
14204;BME280;7185;51.854;6.622;2023-07-29T15:14:03;100457.56;;;25.19;67.16
14204;BME280;7185;51.854;6.622;2023-07-29T15:16:35;100451.88;;;25.44;67.62
14204;BME280;7185;51.854;6.622;2023-07-29T15:19:07;100449.97;;;25.89;67.69
14204;BME280;7185;51.854;6.622;2023-07-29T15:21:40;100437.44;;;25.99;66.03
14204;BME280;7185;51.854;6.622;2023-07-29T15:24:11;100438.75;;;25.63;70.82
14204;BME280;7185;51.854;6.622;2023-07-29T15:26:49;100434.88;;;25.76;66.18
14204;BME280;7185;51.854;6.622;2023-07-29T15:29:21;100431.69;;;26.25;68.43
14204;BME280;7185;51.854;6.622;2023-07-29T15:31:52;100432.63;;;26.14;65.85
14204;BME280;7185;51.854;6.622;2023-07-29T15:34:24;100437.50;;;26.30;66.64
14204;BME280;7185;51.854;6.622;2023-07-29T15:36:56;100431.09;;;26.62;65.76
14204;BME280;7185;51.854;6.622;2023-07-29T15:39:42;100417.00;;;26.39;65.01
14204;BME280;7185;51.854;6.622;2023-07-29T15:42:19;100421.66;;;26.37;64.91
14204;BME280;7185;51.854;6.622;2023-07-29T15:44:51;100421.69;;;26.47;63.84
14204;BME280;7185;51.854;6.622;2023-07-29T15:47:26;100417.78;;;26.51;62.63
14204;BME280;7185;51.854;6.622;2023-07-29T15:49:57;100411.41;;;26.21;65.39
14204;BME280;7185;51.854;6.622;2023-07-29T15:52:29;100400.19;;;26.78;65.73
14204;BME280;7185;51.854;6.622;2023-07-29T15:55:07;100407.00;;;26.82;63.62
14204;BME280;7185;51.854;6.622;2023-07-29T15:57:41;100408.91;;;26.60;65.03
14204;BME280;7185;51.854;6.622;2023-07-29T16:00:13;100401.91;;;26.48;62.07
14204;BME280;7185;51.854;6.622;2023-07-29T16:02:45;100404.84;;;26.85;65.05
14204;BME280;7185;51.854;6.622;2023-07-29T16:05:17;100405.47;;;27.09;62.57
14204;BME280;7185;51.854;6.622;2023-07-29T16:07:49;100409.41;;;26.85;63.62
14204;BME280;7185;51.854;6.622;2023-07-29T16:10:21;100410.34;;;26.33;61.69
14204;BME280;7185;51.854;6.622;2023-07-29T16:12:57;100407.44;;;26.87;63.10
14204;BME280;7185;51.854;6.622;2023-07-29T16:15:43;100408.13;;;26.38;63.64
14204;BME280;7185;51.854;6.622;2023-07-29T16:18:15;100403.63;;;26.59;61.47
14204;BME280;7185;51.854;6.622;2023-07-29T16:20:47;100403.53;;;26.60;62.02
14204;BME280;7185;51.854;6.622;2023-07-29T16:23:23;100397.22;;;26.81;61.99
14204;BME280;7185;51.854;6.622;2023-07-29T16:25:55;100402.50;;;26.61;60.06
14204;BME280;7185;51.854;6.622;2023-07-29T16:28:28;100398.06;;;26.91;60.12
14204;BME280;7185;51.854;6.622;2023-07-29T20:00:10;100460.78;;;22.39;85.09
14204;BME280;7185;51.854;6.622;2023-07-29T20:10:54;100460.66;;;22.27;85.76
14204;BME280;7185;51.854;6.622;2023-07-29T22:19:12;100530.28;;;22.11;79.54
14204;BME280;7185;51.854;6.622;2023-07-29T23:23:21;100583.94;;;20.81;77.70
14204;BME280;7185;51.854;6.622;2023-07-29T23:25:58;100584.56;;;20.70;78.54
14204;BME280;7185;51.854;6.622;2023-07-29T23:28:30;100587.81;;;20.61;79.22
14204;BME280;7185;51.854;6.622;2023-07-29T23:31:02;100587.09;;;20.74;79.03
14204;BME280;7185;51.854;6.622;2023-07-29T23:33:54;100589.03;;;20.56;79.74
14204;BME280;7185;51.854;6.622;2023-07-29T23:36:32;100592.25;;;20.61;79.94
14204;BME280;7185;51.854;6.622;2023-07-29T23:39:11;100588.41;;;20.81;78.77
14204;BME280;7185;51.854;6.622;2023-07-29T23:41:55;100584.44;;;20.88;78.24
14204;BME280;7185;51.854;6.622;2023-07-29T23:44:27;100587.66;;;20.93;78.05
14204;BME280;7185;51.854;6.622;2023-07-29T23:46:59;100587.66;;;20.93;77.05
14204;BME280;7185;51.854;6.622;2023-07-29T23:49:32;100594.03;;;20.76;76.59
14204;BME280;7185;51.854;6.622;2023-07-29T23:52:05;100592.59;;;20.85;75.66
14204;BME280;7185;51.854;6.622;2023-07-29T23:54:38;100587.38;;;20.83;76.13
14204;BME280;7185;51.854;6.622;2023-07-29T23:57:10;100591.38;;;20.76;76.34
14204;BME280;7185;51.854;6.622;2023-07-29T23:59:42;100595.66;;;20.79;76.01
